Air Navigation Services of Czech Republic
Airport: LKKU Updated:  22.11.2017 10:12:08  UTC
 METAR LKKU 22.11. 10:00 ...
METAR LKKU 221000Z 21007KT 9999 FEW033 09/07 Q1013=